»·PEaware :: DAL718 KSLC-KDEN

DAL718 :: KSLC-KDEN

FLIGHT INFORMATION

Flight Status: Arrived
Operator:
Delta Air Lines
More flights by this operator :: More flights under this callsign
Pilot: Dave P. (45)
Aircraft: BOEING 737-800
(B738)
More flights by this aircraft type
Origin: KSLC Salt Lake City Intl
United States
Destination: KDEN Denver Intl
United States
More flights between these airports :: More routes between these airports
Route: RUGGD1 PERTY CHE FRNCH3
File this flight plan on PilotEdge
Remarks: PBN / A1B1C1D1S1S2 DOF / 181008 REG / N738PM EET / KZDV0023 OPR / DAL PER / D RMK / TCAS SIMBRIEF
Altitude:
(Current/Filed)
39,000ft
Speed:
(Current/Filed)
459kts
Departed: 07-Oct-18 06:27 PM
Arrived: 07-Oct-18 07:32 PM
Distance/Time
Traveled:
339nm/1:05
Distance/Time
To Go:
Arrived

Flight Plot

Page will automatically refresh every two minutes.

Flight plan parsing failed; only flown route is shown


Map Options




Map Legend


Flown Route
Filed Route
Departure Airport
Arrival Airport
Navaid (VOR, NDB)
Fix

Horizontal Profiles

Position Reports

Time Latitude Longitude Heading Altitude Ground
Speed
07-Oct-18 18:02 40.787499 -111.982155 102 4235ft 0kts
07-Oct-18 18:03 40.787499 -111.982155 102 4235ft 0kts
07-Oct-18 18:04 40.787499 -111.982155 102 4235ft 0kts
07-Oct-18 18:05 40.787499 -111.982155 102 4235ft 0kts
07-Oct-18 18:06 40.787499 -111.982155 102 4235ft 0kts
07-Oct-18 18:07 40.787499 -111.982155 102 4235ft 0kts
07-Oct-18 18:08 40.787499 -111.982155 102 4235ft 0kts
07-Oct-18 18:09 40.787499 -111.982155 102 4235ft 0kts
07-Oct-18 18:10 40.787499 -111.982155 102 4235ft 0kts
07-Oct-18 18:11 40.787499 -111.982155 102 4235ft 0kts
07-Oct-18 18:12 40.787499 -111.982155 102 4235ft 0kts
07-Oct-18 18:13 40.787499 -111.982155 102 4235ft 0kts
07-Oct-18 18:14 40.787499 -111.982155 102 4235ft 0kts
07-Oct-18 18:15 40.787499 -111.982155 102 4235ft 0kts
07-Oct-18 18:16 40.787499 -111.982155 102 4235ft 0kts
07-Oct-18 18:17 40.787499 -111.982155 102 4235ft 0kts
07-Oct-18 18:18 40.787625 -111.982887 102 4235ft 0kts
07-Oct-18 18:19 40.787625 -111.982887 102 4235ft 0kts
07-Oct-18 18:20 40.787683 -111.982741 29 4235ft 2kts
07-Oct-18 18:21 40.789910 -111.982827 354 4235ft 11kts
07-Oct-18 18:22 40.791178 -111.982988 354 4235ft 3kts
07-Oct-18 18:23 40.792081 -111.978222 84 4235ft 16kts
07-Oct-18 18:24 40.787467 -111.976856 174 4235ft 19kts
07-Oct-18 18:25 40.781489 -111.976165 174 4235ft 22kts
07-Oct-18 18:26 40.776401 -111.975132 174 4235ft 16kts
07-Oct-18 18:27 40.774522 -111.974830 138 4235ft 0kts
07-Oct-18 18:28 40.774488 -111.974138 57 4235ft 8kts
07-Oct-18 18:29 40.777816 -111.973467 354 4235ft 61kts
07-Oct-18 18:30 40.814858 -111.980148 352 5428ft 162kts
07-Oct-18 18:31 40.867860 -111.991977 354 6926ft 238kts
07-Oct-18 18:32 40.937905 -112.001463 354 9579ft 268kts
07-Oct-18 18:33 41.017942 -112.011482 3 11603ft 323kts
07-Oct-18 18:34 41.082966 -111.930508 70 13971ft 357kts
07-Oct-18 18:35 41.120827 -111.805283 76 16749ft 376kts
07-Oct-18 18:36 41.085908 -111.678475 132 19357ft 393kts
07-Oct-18 18:37 41.013077 -111.566949 130 21779ft 405kts
07-Oct-18 18:38 40.940595 -111.450306 130 23927ft 416kts
07-Oct-18 18:39 40.898675 -111.306571 102 25848ft 431kts
07-Oct-18 18:40 40.879379 -111.147805 101 27510ft 441kts
07-Oct-18 18:41 40.859705 -110.986164 102 28997ft 449kts
07-Oct-18 18:42 40.840036 -110.821487 102 30431ft 454kts
07-Oct-18 18:43 40.819972 -110.657088 103 31868ft 455kts
07-Oct-18 18:44 40.799452 -110.491891 103 33280ft 455kts
07-Oct-18 18:45 40.779081 -110.327638 103 34568ft 455kts
07-Oct-18 18:46 40.757922 -110.162888 103 35732ft 456kts
07-Oct-18 18:47 40.738283 -109.997452 99 36818ft 458kts
07-Oct-18 18:48 40.726949 -109.829140 99 37783ft 460kts
07-Oct-18 18:49 40.714821 -109.660975 99 38662ft 462kts
07-Oct-18 18:50 40.702722 -109.491999 98 38943ft 463kts
07-Oct-18 18:51 40.690355 -109.323154 99 38944ft 462kts
07-Oct-18 18:52 40.677553 -109.154328 99 38947ft 463kts
07-Oct-18 18:53 40.664499 -108.986194 100 38945ft 462kts
07-Oct-18 18:54 40.651156 -108.817754 100 38948ft 463kts
07-Oct-18 18:55 40.637531 -108.648997 101 38950ft 462kts
07-Oct-18 18:56 40.623685 -108.480635 101 38948ft 462kts
07-Oct-18 18:57 40.609635 -108.312809 102 38946ft 461kts
07-Oct-18 18:58 40.595369 -108.145339 102 38944ft 461kts
07-Oct-18 18:59 40.580821 -107.977399 102 38934ft 460kts
07-Oct-18 19:00 40.566112 -107.810535 103 38926ft 461kts
07-Oct-18 19:01 40.551401 -107.643297 103 38922ft 461kts
07-Oct-18 19:02 40.536091 -107.476102 103 38920ft 460kts
07-Oct-18 19:03 40.520446 -107.308791 103 38932ft 461kts
07-Oct-18 19:04 40.510918 -107.139836 100 38939ft 464kts
07-Oct-18 19:05 40.501852 -106.970717 101 38940ft 464kts
07-Oct-18 19:06 40.492609 -106.801392 101 38940ft 464kts
07-Oct-18 19:07 40.483621 -106.632681 102 37347ft 462kts
07-Oct-18 19:08 40.473684 -106.463816 104 34562ft 463kts
07-Oct-18 19:09 40.463580 -106.295204 104 31627ft 462kts
07-Oct-18 19:10 40.453461 -106.129995 105 29417ft 445kts
07-Oct-18 19:11 40.442187 -105.971532 109 27316ft 426kts
07-Oct-18 19:12 40.418279 -105.821757 111 25271ft 415kts
07-Oct-18 19:13 40.394626 -105.673830 110 23258ft 411kts
07-Oct-18 19:14 40.371674 -105.529663 109 21754ft 389kts
07-Oct-18 19:15 40.336941 -105.406683 134 20965ft 334kts
07-Oct-18 19:16 40.279001 -105.314620 137 19230ft 323kts
07-Oct-18 19:17 40.222103 -105.225560 136 17189ft 315kts
07-Oct-18 19:18 40.167751 -105.140389 136 16658ft 304kts
07-Oct-18 19:19 40.112457 -105.054050 135 15697ft 308kts
07-Oct-18 19:20 40.057525 -104.968725 135 14749ft 304kts
07-Oct-18 19:21 40.003619 -104.885115 134 13793ft 300kts
07-Oct-18 19:22 39.944379 -104.813078 169 12855ft 280kts
07-Oct-18 19:23 39.872675 -104.807105 181 12521ft 236kts
07-Oct-18 19:24 39.811057 -104.808393 182 12024ft 203kts
07-Oct-18 19:25 39.755970 -104.809947 182 11227ft 182kts
07-Oct-18 19:26 39.702841 -104.813631 182 9555ft 200kts
07-Oct-18 19:27 39.657790 -104.810878 136 8314ft 198kts
07-Oct-18 19:28 39.653382 -104.734902 88 8009ft 191kts
07-Oct-18 19:29 39.665406 -104.683883 31 7905ft 181kts
07-Oct-18 19:30 39.719845 -104.661279 359 7503ft 190kts
07-Oct-18 19:31 39.763574 -104.661279 1 6699ft 176kts
07-Oct-18 19:32 39.808252 -104.660768 2 5848ft 152kts
07-Oct-18 19:33 39.844848 -104.660342 359 5439ft 58kts
07-Oct-18 19:34 39.850668 -104.662413 358 5439ft 14kts
07-Oct-18 19:35 39.852973 -104.663696 269 5439ft 11kts
07-Oct-18 19:36 39.852785 -104.669760 259 5439ft 16kts
07-Oct-18 19:37 39.853335 -104.671086 11 5439ft 0kts
07-Oct-18 19:38 39.853335 -104.671086 11 5439ft 0kts
07-Oct-18 19:39 39.853335 -104.671086 11 5439ft 0kts
07-Oct-18 19:40 39.853335 -104.671086 11 5439ft 0kts

Navigation Log

Ident Type
Flight plan parsing failed, navigation log unavailable